Time;durP1;ratioP1;P1;durP2;ratioP2;P2;SDS_P1;SDS_P2;PMS_P1;PMS_P2;Temp;Humidity;BMP_temperature;BMP_pressure;BME280_temperature;BME280_humidity;BME280_pressure;Samples;Min_cycle;Max_cycle;Signal;HPM_P1;HPM_P2
2021/10/25 00:00:34;;;;;;;58.67;37.97;;;;;;;0.34;100.00;100341.34;2079678;28;20227;-76
2021/10/25 00:01:37;;;;;;;67.05;39.45;;;;;;;0.33;100.00;100348.41;2080208;28;20262;-75
2021/10/25 00:02:40;;;;;;;64.63;40.03;;;;;;;0.31;100.00;100344.38;2071842;28;20617;-75
2021/10/25 00:03:46;;;;;;;62.47;39.33;;;;;;;0.27;100.00;100346.59;2080147;28;20223;-75
2021/10/25 00:04:52;;;;;;;72.30;40.92;;;;;;;0.26;100.00;100337.09;2079807;28;20543;-75
2021/10/25 00:05:59;;;;;;;68.80;40.92;;;;;;;0.25;100.00;100340.72;2072099;28;20312;-76
2021/10/25 00:07:03;;;;;;;66.95;39.15;;;;;;;0.23;100.00;100340.13;2072536;28;20224;-76
2021/10/25 00:08:07;;;;;;;66.30;40.72;;;;;;;0.20;100.00;100332.66;2080306;28;20220;-76
2021/10/25 00:09:10;;;;;;;73.70;40.50;;;;;;;0.18;100.00;100332.84;2079640;28;20272;-75
2021/10/25 00:10:16;;;;;;;62.60;39.90;;;;;;;0.16;100.00;100328.78;2072055;28;20726;-76
2021/10/25 00:11:21;;;;;;;73.97;40.90;;;;;;;0.15;100.00;100332.41;2072514;28;20220;-75
2021/10/25 00:12:26;;;;;;;73.72;40.83;;;;;;;0.15;100.00;100337.66;2080167;28;20219;-76
2021/10/25 00:13:37;;;;;;;71.32;41.85;;;;;;;0.09;100.00;100331.41;2087469;28;20214;-76
2021/10/25 00:14:46;;;;;;;69.18;40.72;;;;;;;0.12;100.00;100338.06;2080379;28;20227;-75
2021/10/25 00:15:50;;;;;;;68.90;40.20;;;;;;;0.08;100.00;100332.38;2080337;28;20219;-76
2021/10/25 00:16:54;;;;;;;72.25;41.42;;;;;;;0.07;100.00;100340.44;2080022;28;20678;-76
2021/10/25 00:17:58;;;;;;;65.32;41.28;;;;;;;0.01;100.00;100334.19;2079711;28;20235;-76
2021/10/25 00:18:59;;;;;;;71.05;43.05;;;;;;;0.03;100.00;100340.03;2080201;28;20234;-76
2021/10/25 00:20:10;;;;;;;70.93;42.60;;;;;;;-0.02;100.00;100343.25;2079932;28;20349;-76
2021/10/25 00:21:13;;;;;;;66.50;40.58;;;;;;;-0.01;100.00;100342.22;2078111;28;20250;-75
2021/10/25 00:22:18;;;;;;;73.13;42.53;;;;;;;-0.06;100.00;100335.97;2080183;28;20258;-76
2021/10/25 00:23:22;;;;;;;71.15;40.97;;;;;;;-0.05;100.00;100348.06;2087650;28;20222;-76
2021/10/25 00:24:24;;;;;;;71.40;41.95;;;;;;;-0.08;100.00;100338.78;2074163;28;20228;-76
2021/10/25 00:25:28;;;;;;;70.05;41.53;;;;;;;-0.09;100.00;100347.66;2071640;28;20228;-76
2021/10/25 00:26:34;;;;;;;78.60;43.47;;;;;;;-0.14;100.00;100339.56;2079516;28;20751;-76
2021/10/25 00:27:43;;;;;;;74.18;43.25;;;;;;;-0.14;100.00;100347.44;2071975;28;20299;-76
2021/10/25 00:28:45;;;;;;;68.32;41.60;;;;;;;-0.15;100.00;100342.38;2071563;28;20702;-75
2021/10/25 00:29:48;;;;;;;72.90;40.75;;;;;;;-0.19;100.00;100341.94;2079443;28;20235;-76
2021/10/25 00:30:50;;;;;;;73.38;42.33;;;;;;;-0.18;100.00;100332.25;2077959;28;20223;-76
2021/10/25 00:31:52;;;;;;;74.18;41.88;;;;;;;-0.21;100.00;100338.72;2076062;28;20243;-76
2021/10/25 00:32:54;;;;;;;73.00;43.03;;;;;;;-0.25;100.00;100334.88;2079622;28;20227;-76
2021/10/25 00:34:00;;;;;;;75.28;40.65;;;;;;;-0.25;100.00;100337.50;2072096;28;20278;-76
2021/10/25 00:35:02;;;;;;;67.68;41.28;;;;;;;-0.26;100.00;100335.88;2079974;28;20223;-75
2021/10/25 00:36:09;;;;;;;72.00;40.88;;;;;;;-0.31;100.00;100333.81;2079732;28;20226;-76
2021/10/25 00:37:13;;;;;;;74.88;42.05;;;;;;;-0.31;100.00;100336.44;2079533;28;20245;-76
2021/10/25 00:38:16;;;;;;;71.38;40.75;;;;;;;-0.32;100.00;100337.47;2079791;28;20251;-76
2021/10/25 00:39:18;;;;;;;78.95;42.63;;;;;;;-0.33;100.00;100337.66;2080013;28;20549;-76
2021/10/25 00:40:23;;;;;;;72.38;43.65;;;;;;;-0.34;100.00;100330.78;2088047;28;20214;-76
2021/10/25 00:41:26;;;;;;;77.75;45.35;;;;;;;-0.37;100.00;100326.72;2087386;28;20333;-76
2021/10/25 00:42:30;;;;;;;72.30;42.95;;;;;;;-0.36;100.00;100324.91;2080278;28;20239;-76
2021/10/25 00:43:34;;;;;;;72.65;42.72;;;;;;;-0.38;100.00;100319.88;2080510;28;20227;-76
2021/10/25 00:44:40;;;;;;;74.68;43.65;;;;;;;-0.39;100.00;100328.72;2079563;28;20583;-75
2021/10/25 00:45:42;;;;;;;71.20;43.42;;;;;;;-0.40;100.00;100316.63;2072110;28;20642;-77
2021/10/25 00:46:46;;;;;;;79.28;43.60;;;;;;;-0.42;100.00;100321.28;2071789;28;20231;-76
2021/10/25 00:47:47;;;;;;;74.60;43.17;;;;;;;-0.42;100.00;100309.97;2079855;28;20230;-76
2021/10/25 00:48:51;;;;;;;75.88;42.20;;;;;;;-0.42;100.00;100309.97;2072884;28;20224;-76
2021/10/25 00:49:57;;;;;;;77.60;42.13;;;;;;;-0.42;100.00;100309.97;2079680;28;20242;-77
2021/10/25 00:51:00;;;;;;;65.60;40.17;;;;;;;-0.44;100.00;100309.34;2079154;28;20223;-76
2021/10/25 00:52:03;;;;;;;63.08;39.97;;;;;;;-0.46;100.00;100309.53;2072390;28;20220;-76
2021/10/25 00:53:09;;;;;;;65.80;40.63;;;;;;;-0.48;100.00;100308.13;2072464;28;20307;-76
2021/10/25 00:54:12;;;;;;;67.57;42.17;;;;;;;-0.51;100.00;100303.28;2073591;28;20316;-76
2021/10/25 00:55:15;;;;;;;63.33;38.17;;;;;;;-0.52;100.00;100302.47;2071622;28;20318;-76
2021/10/25 00:56:19;;;;;;;63.70;38.83;;;;;;;-0.54;100.00;100303.63;2071325;28;20758;-76
2021/10/25 00:57:23;;;;;;;74.30;41.95;;;;;;;-0.57;100.00;100307.47;2071486;28;20223;-76
2021/10/25 00:58:27;;;;;;;72.10;41.47;;;;;;;-0.64;100.00;100296.94;2087130;28;20222;-76
2021/10/25 00:59:28;;;;;;;69.70;40.35;;;;;;;-0.63;100.00;100302.97;2079519;28;20225;-76
2021/10/25 01:00:33;;;;;;;65.85;41.80;;;;;;;-0.64;100.00;100303.97;2065742;28;20220;-76
2021/10/25 01:01:36;;;;;;;70.05;41.45;;;;;;;-0.67;100.00;100299.13;2071597;28;20227;-76
2021/10/25 01:02:39;;;;;;;69.80;41.38;;;;;;;-0.68;100.00;100300.94;2079179;28;20238;-76
2021/10/25 01:03:43;;;;;;;68.63;41.05;;;;;;;-0.70;100.00;100307.34;2079932;28;20263;-76
2021/10/25 01:04:48;;;;;;;67.30;40.95;;;;;;;-0.71;100.00;100301.31;2071635;28;20248;-75
2021/10/25 01:05:51;;;;;;;66.78;40.95;;;;;;;-0.74;100.00;100299.09;2071549;28;20227;-76
2021/10/25 01:06:57;;;;;;;63.65;39.63;;;;;;;-0.73;100.00;100305.94;2072982;28;20228;-76
2021/10/25 01:08:02;;;;;;;67.82;40.50;;;;;;;-0.75;100.00;100297.47;2071479;28;20227;-76
2021/10/25 01:09:05;;;;;;;71.05;40.92;;;;;;;-0.74;100.00;100304.31;2064075;28;20264;-76
2021/10/25 01:10:12;;;;;;;65.50;39.83;;;;;;;-0.76;100.00;100301.09;2069914;28;20307;-76
2021/10/25 01:11:17;;;;;;;66.45;39.50;;;;;;;-0.75;100.00;100297.47;2071273;28;20721;-76
2021/10/25 01:12:20;;;;;;;58.20;37.78;;;;;;;-0.78;100.00;100297.88;2071557;28;20224;-76
2021/10/25 01:13:24;;;;;;;61.75;36.72;;;;;;;-0.80;100.00;100297.22;2073022;28;20651;-76
2021/10/25 01:14:27;;;;;;;58.97;37.70;;;;;;;-0.80;100.00;100301.66;2079383;28;20272;-76
2021/10/25 01:15:33;;;;;;;59.65;36.45;;;;;;;-0.81;100.00;100300.84;2071551;28;20304;-76
2021/10/25 01:16:42;;;;;;;58.33;36.53;;;;;;;-0.81;100.00;100300.84;2073167;28;20231;-76
2021/10/25 01:17:57;;;;;;;64.63;37.30;;;;;;;-0.84;100.00;100301.25;2071442;28;20224;-76
2021/10/25 01:19:00;;;;;;;59.53;35.58;;;;;;;-0.83;100.00;100291.56;2070618;28;20224;-76
2021/10/25 01:20:06;;;;;;;62.15;36.25;;;;;;;-0.84;100.00;100296.00;2063750;28;20227;-76
2021/10/25 01:21:09;;;;;;;57.35;35.97;;;;;;;-0.83;100.00;100296.81;2071489;28;20614;-77
2021/10/25 01:22:12;;;;;;;57.78;36.35;;;;;;;-0.87;100.00;100291.97;2072004;28;20227;-76
2021/10/25 01:23:17;;;;;;;59.85;36.22;;;;;;;-0.91;100.00;100289.91;2079009;28;20249;-76
2021/10/25 01:24:22;;;;;;;61.13;36.03;;;;;;;-0.88;100.00;100289.50;2079265;28;20306;-75
2021/10/25 01:25:26;;;;;;;59.50;36.22;;;;;;;-0.90;100.00;100289.69;2063150;28;20653;-76
2021/10/25 01:26:32;;;;;;;58.33;37.33;;;;;;;-0.91;100.00;100289.91;2063963;28;20229;-75
2021/10/25 01:27:33;;;;;;;55.88;35.35;;;;;;;-0.91;100.00;100289.91;2071733;28;20311;-76
2021/10/25 01:28:37;;;;;;;60.90;37.33;;;;;;;-0.95;100.00;100283.44;2071420;28;20270;-75
2021/10/25 01:29:39;;;;;;;57.55;36.72;;;;;;;-0.94;100.00;100279.81;2071333;28;20228;-76
2021/10/25 01:30:45;;;;;;;58.97;36.10;;;;;;;-0.95;100.00;100279.00;2071249;28;20228;-75
2021/10/25 01:31:47;;;;;;;54.58;34.75;;;;;;;-1.02;100.00;100266.84;2064014;28;20672;-75
2021/10/25 01:32:51;;;;;;;61.58;37.13;;;;;;;-0.98;100.00;100281.19;2063692;28;20304;-75
2021/10/25 01:33:54;;;;;;;60.17;36.33;;;;;;;-1.01;100.00;100273.72;2071401;28;20602;-76
2021/10/25 01:35:01;;;;;;;57.38;35.30;;;;;;;-1.01;100.00;100278.94;2078395;28;20219;-76
2021/10/25 01:36:06;;;;;;;61.20;35.92;;;;;;;-1.04;100.00;100284.53;2063409;28;20228;-76
2021/10/25 01:37:11;;;;;;;59.25;37.78;;;;;;;-1.05;100.00;100277.69;2071618;28;20228;-76
2021/10/25 01:38:17;;;;;;;64.38;36.17;;;;;;;-1.05;100.00;100283.72;2072216;28;20227;-75
2021/10/25 01:39:25;;;;;;;55.42;35.60;;;;;;;-1.07;100.00;100282.31;2065771;28;20275;-75
2021/10/25 01:40:30;;;;;;;52.00;34.60;;;;;;;-1.13;100.00;100270.78;2071975;28;20693;-75
2021/10/25 01:41:35;;;;;;;58.20;35.83;;;;;;;-1.12;100.00;100282.09;2071334;28;20303;-76
2021/10/25 01:42:43;;;;;;;56.55;34.75;;;;;;;-1.11;100.00;100283.72;2072131;28;20228;-76
2021/10/25 01:43:47;;;;;;;53.10;34.22;;;;;;;-1.12;100.00;100276.84;2071595;28;20290;-76
2021/10/25 01:44:50;;;;;;;51.63;34.38;;;;;;;-1.14;100.00;100283.06;2071186;28;20266;-76
2021/10/25 01:45:55;;;;;;;52.75;34.50;;;;;;;-1.16;100.00;100285.06;2071627;28;20220;-76
2021/10/25 01:46:58;;;;;;;60.05;36.10;;;;;;;-1.19;100.00;100274.97;2070716;28;20656;-76
2021/10/25 01:48:07;;;;;;;52.80;36.05;;;;;;;-1.19;100.00;100274.97;2071126;28;20250;-76
2021/10/25 01:49:08;;;;;;;55.97;35.25;;;;;;;-1.19;100.00;100274.97;2071455;28;20227;-76
2021/10/25 01:50:14;;;;;;;57.55;34.47;;;;;;;-1.20;100.00;100265.50;2071325;28;20228;-76
2021/10/25 01:51:20;;;;;;;53.13;35.40;;;;;;;-1.16;100.00;100268.56;2071452;28;20216;-76
2021/10/25 01:52:24;;;;;;;53.13;34.08;;;;;;;-1.19;100.00;100267.13;2078183;28;20234;-76
2021/10/25 01:53:34;;;;;;;59.05;34.65;;;;;;;-1.19;100.00;100271.56;2079046;28;20219;-76
2021/10/25 01:54:42;;;;;;;51.20;34.50;;;;;;;-1.22;100.00;100275.34;2071715;28;20231;-75
2021/10/25 01:55:45;;;;;;;56.33;34.78;;;;;;;-1.23;100.00;100270.31;2080266;28;20261;-76
2021/10/25 01:56:47;;;;;;;53.55;35.13;;;;;;;-1.25;100.00;100261.84;2087694;28;20243;-76
2021/10/25 01:57:50;;;;;;;57.38;35.67;;;;;;;-1.25;100.00;100262.66;2079608;28;20715;-75
2021/10/25 01:58:59;;;;;;;56.20;35.47;;;;;;;-1.25;100.00;100261.84;2071521;28;20236;-79
2021/10/25 02:00:02;;;;;;;58.35;36.00;;;;;;;-1.25;100.00;100264.44;2072599;28;20224;-75
2021/10/25 02:01:21;;;;;;;53.58;34.60;;;;;;;-1.30;100.00;100267.66;2079228;28;20226;-75
2021/10/25 02:02:28;;;;;;;49.50;34.25;;;;;;;-1.30;100.00;100265.03;2078347;28;20602;-76
2021/10/25 02:03:32;;;;;;;61.47;35.85;;;;;;;-1.30;100.00;100264.22;2072007;28;20228;-76
2021/10/25 02:04:38;;;;;;;54.83;34.53;;;;;;;-1.32;100.00;100272.25;2071804;28;20241;-76
2021/10/25 02:05:46;;;;;;;50.63;34.20;;;;;;;-1.36;100.00;100265.78;2071353;28;20244;-75
2021/10/25 02:06:56;;;;;;;53.10;33.08;;;;;;;-1.37;100.00;100269.41;2069240;28;20585;-75
2021/10/25 02:08:02;;;;;;;55.05;34.42;;;;;;;-1.42;100.00;100264.72;2069378;28;20236;-76
2021/10/25 02:09:17;;;;;;;55.63;34.33;;;;;;;-1.42;100.00;100263.91;2072581;28;20231;-76
2021/10/25 02:10:22;;;;;;;57.03;35.38;;;;;;;-1.43;100.00;100262.28;2071192;28;20235;-76
2021/10/25 02:11:23;;;;;;;57.97;35.33;;;;;;;-1.44;100.00;100255.44;2070973;28;20294;-77
2021/10/25 02:12:37;;;;;;;55.00;34.10;;;;;;;-1.45;100.00;100256.44;2071148;28;20220;-76
2021/10/25 02:13:41;;;;;;;62.70;34.55;;;;;;;-1.47;100.00;100253.22;2063173;28;20312;-76
2021/10/25 02:14:48;;;;;;;52.83;34.28;;;;;;;-1.48;100.00;100256.78;2071667;28;20318;-76
2021/10/25 02:15:53;;;;;;;54.08;35.45;;;;;;;-1.49;100.00;100250.75;2073046;28;20274;-76
2021/10/25 02:16:58;;;;;;;53.72;34.17;;;;;;;-1.52;100.00;100247.72;2063224;28;20236;-76
2021/10/25 02:18:05;;;;;;;57.25;35.17;;;;;;;-1.55;100.00;100241.06;2071878;28;20227;-76
2021/10/25 02:19:09;;;;;;;57.20;35.03;;;;;;;-1.54;100.00;100250.53;2079430;28;20281;-75
2021/10/25 02:20:33;;;;;;;50.35;34.15;;;;;;;-1.54;100.00;100244.47;2081711;28;20758;-76
2021/10/25 02:21:37;;;;;;;58.88;34.60;;;;;;;-1.54;100.00;100242.69;2087708;28;20233;-75
2021/10/25 02:22:41;;;;;;;55.78;34.42;;;;;;;-1.56;100.00;100236.03;2079303;28;20310;-76
2021/10/25 02:23:48;;;;;;;56.00;35.08;;;;;;;-1.56;100.00;100233.41;2071559;28;20274;-75
2021/10/25 02:24:50;;;;;;;49.00;32.47;;;;;;;-1.58;100.00;100243.22;2064136;28;20286;-76
2021/10/25 02:25:57;;;;;;;52.33;34.20;;;;;;;-1.56;100.00;100241.25;2064915;28;20229;-75
2021/10/25 02:27:03;;;;;;;49.53;33.47;;;;;;;-1.57;100.00;100240.41;2064162;28;20236;-76
2021/10/25 02:28:08;;;;;;;56.38;33.75;;;;;;;-1.58;100.00;100241.41;2071858;28;20263;-75
2021/10/25 02:29:12;;;;;;;57.78;34.35;;;;;;;-1.59;100.00;100244.22;2070261;28;20235;-76
2021/10/25 02:30:18;;;;;;;55.33;35.97;;;;;;;-1.59;100.00;100244.22;2071548;28;20231;-76
2021/10/25 02:31:24;;;;;;;51.70;33.92;;;;;;;-1.61;100.00;100244.41;2070008;28;20232;-77
2021/10/25 02:32:29;;;;;;;54.35;34.28;;;;;;;-1.63;100.00;100241.19;2071887;28;20220;-76
2021/10/25 02:33:30;;;;;;;54.70;34.92;;;;;;;-1.62;100.00;100239.38;2071133;28;20303;-75
2021/10/25 02:34:39;;;;;;;55.50;33.60;;;;;;;-1.63;100.00;100232.53;2063110;28;20243;-76
2021/10/25 02:35:46;;;;;;;51.92;33.20;;;;;;;-1.68;100.00;100237.50;2074072;28;20230;-76
2021/10/25 02:36:52;;;;;;;52.55;33.28;;;;;;;-1.65;100.00;100244.97;2070952;28;20279;-76
2021/10/25 02:38:01;;;;;;;50.40;32.97;;;;;;;-1.66;100.00;100238.91;2070611;28;20224;-76
2021/10/25 02:39:06;;;;;;;47.72;33.03;;;;;;;-1.70;100.00;100224.59;2064013;28;20232;-75
2021/10/25 02:40:11;;;;;;;51.88;33.70;;;;;;;-1.69;100.00;100239.31;2069257;28;20621;-76
2021/10/25 02:41:13;;;;;;;49.10;32.83;;;;;;;-1.68;100.00;100234.88;2072744;28;21336;-76
2021/10/25 02:42:17;;;;;;;52.13;32.88;;;;;;;-1.69;100.00;100233.25;2070726;28;20262;-76
2021/10/25 02:43:23;;;;;;;54.53;33.90;;;;;;;-1.71;100.00;100238.69;2063480;28;20253;-76
2021/10/25 02:44:32;;;;;;;55.63;33.60;;;;;;;-1.72;100.00;100232.66;2072612;28;20228;-75
2021/10/25 02:45:41;;;;;;;53.13;33.67;;;;;;;-1.71;100.00;100244.72;2071137;28;20709;-75
2021/10/25 02:46:45;;;;;;;52.00;33.55;;;;;;;-1.71;100.00;100242.13;2071541;28;20323;-75
2021/10/25 02:47:53;;;;;;;52.85;34.17;;;;;;;-1.74;100.00;100239.03;2079447;28;20219;-75
2021/10/25 02:48:59;;;;;;;53.45;33.88;;;;;;;-1.74;100.00;100241.66;2070448;28;20235;-75
2021/10/25 02:50:07;;;;;;;53.90;34.00;;;;;;;-1.76;100.00;100236.63;2064444;28;20256;-76
2021/10/25 02:51:12;;;;;;;51.00;33.53;;;;;;;-1.76;100.00;100235.81;2072430;28;20293;-76
2021/10/25 02:52:21;;;;;;;54.72;33.17;;;;;;;-1.80;100.00;100239.81;2072345;28;20312;-75
2021/10/25 02:53:28;;;;;;;50.95;33.05;;;;;;;-1.83;100.00;100233.13;2075740;28;20223;-75
2021/10/25 02:54:32;;;;;;;57.25;33.88;;;;;;;-1.79;100.00;100239.63;2068569;28;20303;-76
2021/10/25 02:55:35;;;;;;;53.50;33.65;;;;;;;-1.82;100.00;100234.78;2072553;28;20270;-76
2021/10/25 02:56:44;;;;;;;51.83;34.22;;;;;;;-1.84;100.00;100221.03;2068325;28;20278;-79
2021/10/25 02:57:46;;;;;;;52.70;34.60;;;;;;;-1.80;100.00;100234.56;2072480;28;20312;-75
2021/10/25 02:58:49;;;;;;;52.38;33.33;;;;;;;-1.82;100.00;100228.72;2080678;28;20230;-75
2021/10/25 02:59:52;;;;;;;50.95;32.53;;;;;;;-1.80;100.00;100232.78;2080279;28;20310;-76
2021/10/25 03:00:55;;;;;;;54.35;34.13;;;;;;;-1.84;100.00;100228.91;2080564;28;20756;-75
2021/10/25 03:01:56;;;;;;;55.20;32.45;;;;;;;-1.85;100.00;100240.34;2080578;28;20722;-75
2021/10/25 03:02:58;;;;;;;52.90;34.50;;;;;;;-1.84;100.00;100243.78;2072175;28;20248;-76
2021/10/25 03:04:01;;;;;;;52.75;33.58;;;;;;;-1.86;100.00;100240.53;2072437;28;20780;-76
2021/10/25 03:05:04;;;;;;;57.95;32.88;;;;;;;-1.88;100.00;100245.97;2072391;28;20347;-76
2021/10/25 03:06:06;;;;;;;61.33;34.70;;;;;;;-1.88;100.00;100245.16;2080162;28;20701;-76
2021/10/25 03:07:11;;;;;;;54.05;34.55;;;;;;;-1.88;100.00;100234.69;2071952;28;20722;-76
2021/10/25 03:08:18;;;;;;;50.88;34.38;;;;;;;-1.92;100.00;100230.81;2082161;28;20713;-76
2021/10/25 03:09:24;;;;;;;53.45;35.05;;;;;;;-1.89;100.00;100233.09;2080732;28;20246;-75
2021/10/25 03:10:26;;;;;;;52.42;34.08;;;;;;;-1.89;100.00;100233.88;2071969;28;20238;-75
2021/10/25 03:11:29;;;;;;;59.38;35.88;;;;;;;-1.85;100.00;100242.16;2072466;28;20311;-76
2021/10/25 03:12:33;;;;;;;57.47;32.90;;;;;;;-1.88;100.00;100235.50;2071779;28;20227;-75
2021/10/25 03:13:42;;;;;;;56.05;35.15;;;;;;;-1.87;100.00;100239.75;2079788;28;20306;-76
2021/10/25 03:14:45;;;;;;;53.03;33.20;;;;;;;-1.85;100.00;100229.09;2072737;28;20327;-76
2021/10/25 03:15:48;;;;;;;53.80;34.63;;;;;;;-1.85;100.00;100245.59;2080068;28;20223;-76
2021/10/25 03:16:50;;;;;;;61.08;36.20;;;;;;;-1.87;100.00;100239.75;2072363;28;20224;-75
2021/10/25 03:17:54;;;;;;;55.63;33.75;;;;;;;-1.86;100.00;100241.34;2072234;28;20611;-77
2021/10/25 03:19:02;;;;;;;59.78;34.85;;;;;;;-1.85;100.00;100240.34;2080438;28;20224;-76
2021/10/25 03:20:07;;;;;;;58.33;35.63;;;;;;;-1.85;100.00;100245.59;2080048;28;20227;-75
2021/10/25 03:21:10;;;;;;;47.85;33.40;;;;;;;-1.84;100.00;100236.75;2074080;28;20220;-76
2021/10/25 03:22:13;;;;;;;52.05;34.65;;;;;;;-1.83;100.00;100235.75;2072103;28;20228;-76
2021/10/25 03:23:14;;;;;;;53.95;33.90;;;;;;;-1.83;100.00;100240.97;2080296;28;20223;-75
2021/10/25 03:24:17;;;;;;;55.78;34.20;;;;;;;-1.81;100.00;100238.19;2072288;28;20307;-75
2021/10/25 03:25:21;;;;;;;54.88;33.78;;;;;;;-1.82;100.00;100240.00;2064235;28;20225;-75
2021/10/25 03:26:25;;;;;;;54.67;34.53;;;;;;;-1.82;100.00;100242.63;2078306;28;20227;-76
2021/10/25 03:27:29;;;;;;;52.53;32.08;;;;;;;-1.84;100.00;100233.31;2080333;28;20588;-75
2021/10/25 03:28:33;;;;;;;52.70;32.22;;;;;;;-1.88;100.00;100235.50;2072172;28;20228;-75
2021/10/25 03:29:35;;;;;;;55.30;34.42;;;;;;;-1.85;100.00;100239.53;2072312;28;20305;-75
2021/10/25 03:30:38;;;;;;;49.92;34.45;;;;;;;-1.87;100.00;100233.69;2080402;28;20225;-75
2021/10/25 03:31:42;;;;;;;55.72;33.97;;;;;;;-1.89;100.00;100233.88;2080003;28;20243;-76
2021/10/25 03:32:47;;;;;;;49.63;32.88;;;;;;;-1.89;100.00;100236.50;2072653;28;20224;-76
2021/10/25 03:34:10;;;;;;;61.53;33.42;;;;;;;-1.89;100.00;100226.03;2082978;28;20272;-76
2021/10/25 03:35:13;;;;;;;50.38;33.85;;;;;;;-1.88;100.00;100237.31;2080208;28;20231;-76
2021/10/25 03:36:18;;;;;;;52.78;34.05;;;;;;;-1.93;100.00;100232.63;2080368;28;20227;-76
2021/10/25 03:37:19;;;;;;;50.40;33.42;;;;;;;-1.87;100.00;100237.13;2072526;28;20224;-76
2021/10/25 03:38:29;;;;;;;57.53;35.10;;;;;;;-1.93;100.00;100227.41;2079828;28;20245;-78
2021/10/25 03:39:35;;;;;;;55.95;34.78;;;;;;;-1.90;100.00;100227.03;2080464;28;20325;-75
2021/10/25 03:40:44;;;;;;;51.97;32.70;;;;;;;-1.92;100.00;100223.78;2080121;28;20281;-75
2021/10/25 03:41:48;;;;;;;53.13;33.78;;;;;;;-1.90;100.00;100221.00;2073014;28;20251;-75
2021/10/25 03:42:56;;;;;;;56.47;33.85;;;;;;;-1.93;100.00;100219.56;2079676;28;20235;-78
2021/10/25 03:44:02;;;;;;;56.35;34.13;;;;;;;-1.93;100.00;100216.94;2072938;28;20715;-76
2021/10/25 03:45:11;;;;;;;52.78;33.75;;;;;;;-1.96;100.00;100214.69;2072729;28;20230;-76
2021/10/25 03:46:20;;;;;;;55.10;35.88;;;;;;;-1.95;100.00;100212.91;2073072;28;20240;-75
2021/10/25 03:47:27;;;;;;;49.50;31.65;;;;;;;-1.97;100.00;100215.69;2073350;28;20351;-76
2021/10/25 03:48:37;;;;;;;50.90;33.30;;;;;;;-2.01;100.00;100209.19;2072380;28;20577;-75
2021/10/25 03:49:45;;;;;;;50.03;33.13;;;;;;;-2.02;100.00;100203.16;2072738;28;20674;-75
2021/10/25 03:51:10;;;;;;;55.20;33.47;;;;;;;-2.06;100.00;100201.94;2074165;28;20252;-75
2021/10/25 03:52:19;;;;;;;57.33;35.10;;;;;;;-2.05;100.00;100202.75;2079812;28;20678;-76
2021/10/25 03:53:30;;;;;;;59.25;33.92;;;;;;;-2.02;100.00;100204.97;2073268;28;20278;-76
2021/10/25 03:54:39;;;;;;;58.13;34.28;;;;;;;-2.03;100.00;100201.56;2072901;28;20247;-76
2021/10/25 03:55:52;;;;;;;55.75;33.40;;;;;;;-2.04;100.00;100209.59;2072835;28;20228;-75
2021/10/25 03:57:16;;;;;;;48.75;33.17;;;;;;;-2.04;100.00;100204.34;2072099;28;20258;-75
2021/10/25 03:59:57;;;;;;;58.00;34.17;;;;;;;-2.07;100.00;100200.31;2080272;28;20270;-76
2021/10/25 04:03:58;;;;;;;55.63;33.00;;;;;;;-2.05;100.00;100200.94;2076360;28;20284;-76
2021/10/25 04:13:35;;;;;;;52.67;32.60;;;;;;;-2.09;100.00;100194.44;2073614;28;20223;-75
2021/10/25 04:27:12;;;;;;;57.47;37.63;;;;;;;-2.01;100.00;100168.19;2078867;28;20231;-76
2021/10/25 04:28:17;;;;;;;59.50;34.72;;;;;;;-2.02;100.00;100163.13;2083101;28;20226;-76
2021/10/25 04:29:23;;;;;;;57.30;35.10;;;;;;;-2.01;100.00;100168.19;2080209;28;20638;-76
2021/10/25 04:30:30;;;;;;;58.78;35.50;;;;;;;-2.02;100.00;100165.75;2080221;28;20228;-75
2021/10/25 04:31:36;;;;;;;57.08;34.22;;;;;;;-2.01;100.00;100162.13;2079988;28;20219;-75
2021/10/25 04:32:40;;;;;;;56.92;34.80;;;;;;;-2.02;100.00;100160.53;2068071;28;20323;-75
2021/10/25 04:33:46;;;;;;;71.07;35.42;;;;;;;-2.00;100.00;100153.28;2071729;28;20235;-75
2021/10/25 04:35:10;;;;;;;57.67;34.00;;;;;;;-2.02;100.00;100156.09;2068083;28;20224;-75
2021/10/25 04:36:40;;;;;;;75.95;39.83;;;;;;;-2.03;100.00;100156.28;2079066;28;20670;-75
2021/10/25 04:37:51;;;;;;;65.53;39.50;;;;;;;-2.05;100.00;100155.69;2080069;28;20710;-75
2021/10/25 04:38:58;;;;;;;60.80;37.75;;;;;;;-2.04;100.00;100152.88;2071605;28;20596;-75
2021/10/25 04:40:00;;;;;;;53.20;35.65;;;;;;;-2.03;100.00;100153.69;2079705;28;20264;-75
2021/10/25 04:41:03;;;;;;;65.15;36.05;;;;;;;-2.05;100.00;100151.25;2079894;28;20223;-74
2021/10/25 04:42:05;;;;;;;59.10;34.97;;;;;;;-2.04;100.00;100157.28;2071956;28;20220;-75
2021/10/25 04:43:13;;;;;;;63.10;37.25;;;;;;;-2.06;100.00;100157.50;2079686;28;20310;-75
2021/10/25 04:44:16;;;;;;;58.80;36.55;;;;;;;-2.07;100.00;100152.44;2071632;28;20228;-75
2021/10/25 04:45:21;;;;;;;62.72;38.10;;;;;;;-2.07;100.00;100155.06;2079514;28;20241;-75
2021/10/25 04:46:34;;;;;;;67.95;38.95;;;;;;;-2.07;100.00;100152.44;2079402;28;20258;-75
2021/10/25 04:47:36;;;;;;;59.50;37.60;;;;;;;-2.08;100.00;100146.41;2080199;28;20223;-75
2021/10/25 04:48:47;;;;;;;57.20;35.75;;;;;;;-2.05;100.00;100150.44;2072192;28;20607;-75
2021/10/25 04:50:01;;;;;;;65.45;38.45;;;;;;;-2.07;100.00;100142.81;2081340;28;20230;-75
2021/10/25 04:51:36;;;;;;;72.05;41.03;;;;;;;-2.06;100.00;100149.66;2083245;28;20223;-75
2021/10/25 04:52:47;;;;;;;63.65;38.75;;;;;;;-2.04;100.00;100144.22;2086950;28;20222;-74
2021/10/25 04:53:50;;;;;;;69.43;41.75;;;;;;;-2.02;100.00;100144.84;2079932;28;20619;-75
2021/10/25 04:55:00;;;;;;;74.60;42.65;;;;;;;-2.00;100.00;100145.44;2079230;28;20281;-75
2021/10/25 04:56:02;;;;;;;68.50;39.60;;;;;;;-1.97;100.00;100141.69;2080223;28;20219;-75
2021/10/25 04:57:07;;;;;;;64.43;40.10;;;;;;;-1.99;100.00;100144.47;2079734;28;20231;-75
2021/10/25 04:58:10;;;;;;;67.35;41.33;;;;;;;-1.98;100.00;100148.72;2079480;28;20227;-74
2021/10/25 04:59:14;;;;;;;62.33;38.70;;;;;;;-1.98;100.00;100148.72;2079531;28;20227;-75
2021/10/25 05:00:16;;;;;;;65.75;37.92;;;;;;;-1.97;100.00;100150.31;2080147;28;20657;-75
2021/10/25 05:01:20;;;;;;;63.70;38.55;;;;;;;-1.96;100.00;100140.69;2079410;28;20277;-75
2021/10/25 05:02:23;;;;;;;65.03;39.45;;;;;;;-1.98;100.00;100135.63;2072183;28;20667;-74
2021/10/25 05:03:27;;;;;;;65.07;39.28;;;;;;;-1.98;100.00;100140.06;2071511;28;20243;-75
2021/10/25 05:04:32;;;;;;;64.22;38.80;;;;;;;-1.98;100.00;100135.63;2071524;28;20246;-75
2021/10/25 05:05:41;;;;;;;65.88;39.67;;;;;;;-2.00;100.00;100135.84;2064521;28;20687;-75
2021/10/25 05:06:47;;;;;;;65.20;39.33;;;;;;;-1.92;100.00;100142.72;2063928;28;20271;-75
2021/10/25 05:07:59;;;;;;;66.45;38.75;;;;;;;-1.91;100.00;100146.13;2063373;28;20224;-74
2021/10/25 05:09:00;;;;;;;65.70;39.03;;;;;;;-1.94;100.00;100144.72;2079108;28;20219;-75
2021/10/25 05:10:03;;;;;;;70.15;39.60;;;;;;;-1.95;100.00;100140.47;2071581;28;20335;-75
2021/10/25 05:11:06;;;;;;;70.22;40.50;;;;;;;-1.97;100.00;100137.25;2071579;28;20220;-75
2021/10/25 05:12:15;;;;;;;71.97;41.05;;;;;;;-1.96;100.00;100141.47;2071481;28;20307;-75
2021/10/25 05:13:23;;;;;;;73.40;40.95;;;;;;;-1.95;100.00;100145.72;2071145;28;20243;-75
2021/10/25 05:14:29;;;;;;;70.85;39.60;;;;;;;-1.95;100.00;100139.69;2073437;28;20686;-74
2021/10/25 05:15:36;;;;;;;65.55;39.17;;;;;;;-1.97;100.00;100137.25;2063648;28;20243;-75
2021/10/25 05:16:46;;;;;;;62.25;39.38;;;;;;;-1.98;100.00;100140.88;2063323;28;20308;-75
2021/10/25 05:17:49;;;;;;;75.68;40.40;;;;;;;-1.95;100.00;100139.69;2076228;28;20302;-75
2021/10/25 05:18:54;;;;;;;69.82;42.08;;;;;;;-1.94;100.00;100149.94;2079475;28;20223;-75
2021/10/25 05:20:03;;;;;;;71.22;42.05;;;;;;;-1.96;100.00;100144.09;2072194;28;20232;-75
2021/10/25 05:21:17;;;;;;;65.72;41.25;;;;;;;-1.93;100.00;100148.94;2078779;28;20602;-75